»·PEaware :: N124AG KPSP-KOXR

N124AG :: KPSP-KOXR

FLIGHT INFORMATION

Flight Status: Arrived
Operator: Privately registered:
United States
More flights under this callsign
Pilot: Michael M. (17510)
Aircraft: PIPER PA-31/31P NAVAJO CHIEFTAIN
(PA31)
More flights by this aircraft type
Origin: KPSP Palm Springs Intl
United States
Destination: KOXR Oxnard
United States
More flights between these airports :: More routes between these airports
Route:
File this flight plan on PilotEdge
Remarks:
Altitude:
(Current/Filed)
3,500ft
Speed:
(Current/Filed)
0kts
Departed: 02-Feb-21 12:27 PM
Arrived: 02-Feb-21 01:13 PM
Distance/Time
Traveled:
136nm/0:46
Distance/Time
To Go:
Arrived

Flight Plot

Page will automatically refresh every two minutes.

Flight plan parsing failed; only flown route is shown


Map Options




Map Legend


Flown Route
Filed Route
Departure Airport
Arrival Airport
Navaid (VOR, NDB)
Fix

Horizontal Profiles

Position Reports

Time Latitude Longitude Heading Altitude Ground
Speed
02-Feb-21 12:19 33.826911 -116.500477 320 426ft 0kts
02-Feb-21 12:20 33.826911 -116.500477 320 426ft 0kts
02-Feb-21 12:21 33.826911 -116.500477 320 426ft 0kts
02-Feb-21 12:22 33.826911 -116.500477 320 426ft 0kts
02-Feb-21 12:23 33.827014 -116.500962 237 426ft 3kts
02-Feb-21 12:24 33.824630 -116.499566 230 426ft 0kts
02-Feb-21 12:25 33.824529 -116.499722 232 426ft 7kts
02-Feb-21 12:26 33.836170 -116.510887 322 742ft 133kts
02-Feb-21 12:27 33.873393 -116.541553 322 1877ft 181kts
02-Feb-21 12:28 33.901470 -116.589085 275 3229ft 180kts
02-Feb-21 12:29 33.910914 -116.646059 282 4829ft 175kts
02-Feb-21 12:30 33.920067 -116.705465 269 6140ft 184kts
02-Feb-21 12:31 33.920519 -116.767536 269 7441ft 187kts
02-Feb-21 12:32 33.920540 -116.830991 269 8753ft 189kts
02-Feb-21 12:33 33.920634 -116.896963 270 8642ft 203kts
02-Feb-21 12:34 33.920408 -116.963615 269 8501ft 199kts
02-Feb-21 12:35 33.920306 -117.030412 269 8501ft 199kts
02-Feb-21 12:36 33.920472 -117.097243 269 8501ft 199kts
02-Feb-21 12:37 33.920002 -117.164162 269 8501ft 199kts
02-Feb-21 12:38 33.919749 -117.230844 269 8501ft 199kts
02-Feb-21 12:39 33.919487 -117.297524 269 8501ft 199kts
02-Feb-21 12:40 33.919189 -117.364436 269 8501ft 199kts
02-Feb-21 12:41 33.918856 -117.431262 269 8501ft 199kts
02-Feb-21 12:42 33.918488 -117.497999 269 8501ft 199kts
02-Feb-21 12:43 33.937030 -117.558611 305 8501ft 199kts
02-Feb-21 12:44 33.969812 -117.612450 307 8501ft 199kts
02-Feb-21 12:45 34.003100 -117.665986 306 8501ft 199kts
02-Feb-21 12:46 34.036340 -117.719428 306 8501ft 199kts
02-Feb-21 12:47 34.069648 -117.773058 306 8501ft 199kts
02-Feb-21 12:48 34.091299 -117.834405 288 8501ft 199kts
02-Feb-21 12:49 34.108921 -117.897868 288 8501ft 199kts
02-Feb-21 12:50 34.126458 -117.961583 288 8501ft 199kts
02-Feb-21 12:51 34.143883 -118.025029 288 8500ft 199kts
02-Feb-21 12:52 34.168653 -118.085081 297 8501ft 199kts
02-Feb-21 12:53 34.194286 -118.144547 297 8501ft 199kts
02-Feb-21 12:54 34.219883 -118.203941 297 8501ft 199kts
02-Feb-21 12:55 34.245552 -118.263601 297 8501ft 199kts
02-Feb-21 12:56 34.271140 -118.323176 297 8501ft 199kts
02-Feb-21 12:57 34.280056 -118.386429 265 7991ft 187kts
02-Feb-21 12:58 34.274785 -118.448541 263 6976ft 183kts
02-Feb-21 12:59 34.269051 -118.509632 263 5869ft 180kts
02-Feb-21 13:00 34.263339 -118.569665 263 4763ft 177kts
02-Feb-21 13:01 34.257659 -118.628767 263 4501ft 177kts
02-Feb-21 13:02 34.251980 -118.688143 263 4501ft 177kts
02-Feb-21 13:03 34.243641 -118.746917 256 4232ft 177kts
02-Feb-21 13:04 34.231795 -118.804240 255 3506ft 173kts
02-Feb-21 13:05 34.219980 -118.861262 255 3434ft 175kts
02-Feb-21 13:06 34.209732 -118.918204 262 2514ft 171kts
02-Feb-21 13:07 34.203008 -118.975460 261 2503ft 172kts
02-Feb-21 13:08 34.199649 -119.032918 269 2500ft 162kts
02-Feb-21 13:10 34.199855 -119.092561 270 2160ft 192kts
02-Feb-21 13:11 34.200338 -119.144123 271 1079ft 130kts
02-Feb-21 13:12 34.200712 -119.186849 270 261ft 113kts
02-Feb-21 13:13 34.200490 -119.210895 237 39ft 18kts
02-Feb-21 13:14 34.199685 -119.208014 93 39ft 19kts

Navigation Log

Ident Type
Flight plan parsing failed, navigation log unavailable